Time;durP1;ratioP1;P1;durP2;ratioP2;P2;SDS_P1;SDS_P2;PMS_P1;PMS_P2;Temp;Humidity;BMP_temperature;BMP_pressure;BME280_temperature;BME280_humidity;BME280_pressure;Samples;Min_cycle;Max_cycle;Signal;HPM_P1;HPM_P2
2022/03/31 00:00:47;;;;;;;21.60;19.30;;;21.70;54.10;;;;;;5009345;28;20903;-64
2022/03/31 00:03:19;;;;;;;27.93;23.33;;;21.40;49.40;;;;;;5008995;28;20443;-64
2022/03/31 00:05:45;;;;;;;23.13;18.80;;;21.50;68.30;;;;;;5008822;28;20412;-65
2022/03/31 00:08:16;;;;;;;21.00;18.03;;;21.60;72.90;;;;;;5008818;28;20478;-64
2022/03/31 00:10:47;;;;;;;21.67;18.53;;;21.60;49.50;;;;;;5008894;28;20478;-64
2022/03/31 00:13:24;;;;;;;23.90;19.30;;;21.60;67.90;;;;;;5009027;28;20505;-64
2022/03/31 00:15:51;;;;;;;11.23;10.20;;;21.50;68.00;;;;;;5008862;28;20436;-64
2022/03/31 00:18:18;;;;;;;15.63;12.63;;;21.50;68.20;;;;;;5008436;28;20510;-63
2022/03/31 00:20:44;;;;;;;21.30;17.80;;;;;;;;;;5008799;28;20451;-63
2022/03/31 00:23:09;;;;;;;18.20;14.40;;;21.50;67.80;;;;;;5008855;28;20435;-64
2022/03/31 00:25:35;;;;;;;18.97;15.10;;;21.60;68.00;;;;;;5009030;28;20443;-64
2022/03/31 00:28:03;;;;;;;24.20;20.73;;;21.60;60.60;;;;;;5008802;28;20205;-64
2022/03/31 00:30:30;;;;;;;8.83;8.00;;;21.60;50.30;;;;;;5008826;28;20552;-65
2022/03/31 00:32:56;;;;;;;6.27;5.77;;;21.60;69.20;;;;;;5008659;28;20771;-64
2022/03/31 00:35:22;;;;;;;7.37;6.77;;;;;;;;;;5008257;28;20424;-64
2022/03/31 00:37:48;;;;;;;7.20;6.57;;;;;;;;;;5008714;28;20521;-64
2022/03/31 00:40:15;;;;;;;32.20;25.30;;;21.00;49.20;;;;;;5012244;28;20988;-63
2022/03/31 00:42:59;;;;;;;31.43;28.03;;;21.60;68.20;;;;;;5012740;28;20412;-64
2022/03/31 00:45:34;;;;;;;13.73;11.83;;;21.30;68.40;;;;;;5012672;28;20404;-64
2022/03/31 00:48:01;;;;;;;22.43;17.33;;;21.60;68.30;;;;;;5012116;28;20553;-64
2022/03/31 00:50:27;;;;;;;17.77;15.87;;;21.70;63.50;;;;;;5012356;28;20612;-64
2022/03/31 00:52:53;;;;;;;13.10;11.27;;;;;;;;;;5012361;28;20431;-64
2022/03/31 00:55:19;;;;;;;25.00;20.07;;;21.50;67.70;;;;;;5012520;28;20817;-64
2022/03/31 00:57:47;;;;;;;16.53;13.67;;;19.30;48.50;;;;;;5012294;28;20447;-64
2022/03/31 01:00:17;;;;;;;18.23;14.57;;;21.80;49.40;;;;;;5012250;28;20587;-63
2022/03/31 01:02:44;;;;;;;11.20;10.00;;;21.50;49.40;;;;;;5012240;28;20455;-64
2022/03/31 01:05:14;;;;;;;18.77;14.70;;;21.40;67.50;;;;;;5012182;28;20470;-64
2022/03/31 01:07:40;;;;;;;7.90;7.10;;;;;;;;;;5011584;28;20451;-64
2022/03/31 01:10:07;;;;;;;11.20;10.10;;;21.60;68.40;;;;;;5011858;28;20443;-64
2022/03/31 01:12:34;;;;;;;5.87;5.37;;;21.50;48.80;;;;;;5012077;28;20424;-64
2022/03/31 01:15:09;;;;;;;5.13;4.80;;;21.40;68.40;;;;;;5011979;28;20562;-63
2022/03/31 01:17:36;;;;;;;8.53;7.83;;;22.90;69.00;;;;;;5011367;28;20860;-64
2022/03/31 01:20:03;;;;;;;11.90;10.50;;;21.50;68.30;;;;;;5011731;28;20423;-64
2022/03/31 01:22:31;;;;;;;17.83;14.60;;;21.50;49.30;;;;;;5011657;28;20456;-63
2022/03/31 01:24:58;;;;;;;17.77;14.40;;;21.70;49.30;;;;;;5017214;28;20525;-64
2022/03/31 01:27:25;;;;;;;9.50;8.57;;;21.50;53.30;;;;;;5024756;28;20428;-63
2022/03/31 01:29:52;;;;;;;9.63;8.73;;;21.60;65.20;;;;;;5011598;28;20966;-64
2022/03/31 01:32:18;;;;;;;10.30;9.23;;;;;;;;;;5001856;28;20944;-64
2022/03/31 01:34:44;;;;;;;9.70;8.50;;;21.40;72.50;;;;;;4992478;28;20465;-63
2022/03/31 01:37:10;;;;;;;13.63;11.60;;;21.60;69.60;;;;;;4992206;28;20433;-64
2022/03/31 01:39:35;;;;;;;12.10;10.20;;;21.50;67.80;;;;;;5009166;28;20430;-64
2022/03/31 01:42:01;;;;;;;20.90;15.83;;;21.50;69.80;;;;;;5011780;28;20170;-64
2022/03/31 01:44:27;;;;;;;13.90;11.27;;;21.30;67.80;;;;;;5011427;28;20184;-64
2022/03/31 01:46:53;;;;;;;7.03;6.43;;;21.70;67.90;;;;;;5011087;28;20201;-65
2022/03/31 01:49:19;;;;;;;8.10;7.40;;;;;;;;;;5010881;28;20465;-64
2022/03/31 01:51:45;;;;;;;4.10;3.87;;;21.40;69.30;;;;;;5011723;28;20177;-64
2022/03/31 01:54:10;;;;;;;5.13;4.73;;;21.40;68.10;;;;;;5011694;28;20920;-64
2022/03/31 01:56:41;;;;;;;7.40;6.80;;;21.60;57.90;;;;;;5011284;28;20197;-64
2022/03/31 01:59:07;;;;;;;4.43;4.13;;;21.50;60.30;;;;;;5002096;28;20187;-64
2022/03/31 02:01:33;;;;;;;6.93;6.43;;;21.60;68.10;;;;;;5011584;28;20412;-64
2022/03/31 02:03:59;;;;;;;6.13;5.70;;;;;;;;;;5011480;28;20188;-64
2022/03/31 02:06:24;;;;;;;6.70;6.20;;;21.30;61.20;;;;;;5011166;28;20191;-63
2022/03/31 02:08:50;;;;;;;3.77;3.57;;;21.30;73.30;;;;;;5011293;28;20924;-64
2022/03/31 02:11:16;;;;;;;4.60;4.30;;;;;;;;;;5011234;28;20603;-64
2022/03/31 02:13:43;;;;;;;5.20;4.80;;;21.50;69.70;;;;;;5011216;28;20209;-64
2022/03/31 02:16:09;;;;;;;6.30;5.83;;;;;;;;;;5011176;28;20519;-64
2022/03/31 02:18:36;;;;;;;5.53;5.13;;;21.40;68.60;;;;;;5010968;28;20416;-65
2022/03/31 02:21:02;;;;;;;4.53;4.27;;;21.40;68.00;;;;;;5011216;28;20482;-64
2022/03/31 02:23:27;;;;;;;7.47;6.87;;;21.50;68.80;;;;;;5010932;28;20420;-64
2022/03/31 02:25:53;;;;;;;5.20;4.90;;;;;;;;;;5010837;28;20428;-64
2022/03/31 02:28:19;;;;;;;4.20;3.90;;;;;;;;;;5010598;28;20343;-63
2022/03/31 02:30:45;;;;;;;5.03;4.73;;;;;;;;;;5011040;28;20523;-64
2022/03/31 02:33:11;;;;;;;5.53;5.13;;;;;;;;;;5010772;28;20435;-64
2022/03/31 02:35:37;;;;;;;8.03;7.43;;;21.60;66.80;;;;;;5010330;28;20418;-64
2022/03/31 02:38:03;;;;;;;7.60;6.90;;;21.30;70.20;;;;;;5010488;28;20451;-64
2022/03/31 02:40:28;;;;;;;7.33;6.73;;;21.50;58.30;;;;;;5010511;28;20176;-64
2022/03/31 02:42:55;;;;;;;10.33;9.33;;;;;;;;;;5010989;28;20173;-64
2022/03/31 02:45:21;;;;;;;7.30;6.63;;;;;;;;;;5010625;28;20636;-64
2022/03/31 02:47:47;;;;;;;11.37;10.27;;;21.40;68.20;;;;;;5010565;28;20424;-64
2022/03/31 02:50:17;;;;;;;9.10;8.10;;;21.30;67.90;;;;;;5009970;28;20501;-65
2022/03/31 02:55:28;;;;;;;7.63;7.03;;;21.50;68.10;;;;;;5010659;28;20438;-63
2022/03/31 02:58:02;;;;;;;16.07;13.10;;;21.40;47.50;;;;;;5010820;28;20424;-64
2022/03/31 03:00:30;;;;;;;10.70;9.63;;;21.40;49.30;;;;;;5009499;28;20489;-64
2022/03/31 03:02:56;;;;;;;12.63;10.50;;;;;;;;;;5010173;28;20416;-63
2022/03/31 03:05:22;;;;;;;8.27;7.50;;;21.30;58.30;;;;;;5010571;28;20882;-64
2022/03/31 03:07:48;;;;;;;12.13;10.37;;;;;;;;;;5010304;28;20519;-64
2022/03/31 03:10:14;;;;;;;11.63;10.07;;;21.50;67.90;;;;;;5010375;28;20169;-65
2022/03/31 03:12:41;;;;;;;10.33;9.20;;;21.50;59.10;;;;;;5010285;28;21102;-65
2022/03/31 03:15:10;;;;;;;13.40;11.60;;;21.50;61.60;;;;;;5009921;28;20738;-64
2022/03/31 03:17:41;;;;;;;13.03;11.43;;;21.40;49.70;;;;;;5009776;28;20425;-64
2022/03/31 03:20:13;;;;;;;13.43;12.00;;;21.30;68.00;;;;;;5009695;28;20431;-64
2022/03/31 03:22:39;;;;;;;12.67;11.33;;;;;;;;;;5009998;28;20416;-63
2022/03/31 03:25:05;;;;;;;9.27;8.33;;;21.40;51.00;;;;;;5009146;28;20443;-63
2022/03/31 03:27:30;;;;;;;9.83;8.83;;;21.90;68.50;;;;;;5007993;28;20491;-63
2022/03/31 03:29:57;;;;;;;9.90;8.90;;;21.40;70.60;;;;;;5009824;28;20895;-64
2022/03/31 03:32:22;;;;;;;7.83;7.13;;;21.50;70.70;;;;;;5009487;28;20220;-64
2022/03/31 03:34:48;;;;;;;11.67;9.83;;;21.20;72.90;;;;;;5009749;28;20951;-64
2022/03/31 03:37:15;;;;;;;8.50;7.73;;;;;;;;;;5009438;28;20200;-64
2022/03/31 03:39:40;;;;;;;9.03;8.30;;;21.40;55.70;;;;;;5009063;28;20460;-64
2022/03/31 03:42:07;;;;;;;6.87;6.27;;;21.50;48.40;;;;;;5006448;28;20967;-64
2022/03/31 03:44:34;;;;;;;11.70;10.17;;;21.30;69.00;;;;;;5003634;28;20183;-64
2022/03/31 03:47:00;;;;;;;8.93;8.03;;;21.50;68.50;;;;;;5009557;28;20431;-64
2022/03/31 03:49:26;;;;;;;9.90;8.90;;;;;;;;;;5016767;28;20436;-63
2022/03/31 03:51:51;;;;;;;8.60;7.43;;;21.50;68.10;;;;;;5005450;28;20178;-63
2022/03/31 03:54:17;;;;;;;8.77;8.00;;;;;;;;;;4990699;28;21027;-65
2022/03/31 03:56:43;;;;;;;9.93;8.53;;;;;;;;;;5007148;28;20201;-64
2022/03/31 03:59:09;;;;;;;10.60;8.80;;;21.20;69.90;;;;;;5020146;28;20427;-64
2022/03/31 04:01:35;;;;;;;9.17;8.33;;;21.30;68.10;;;;;;5002902;28;20428;-64
2022/03/31 04:04:00;;;;;;;17.87;13.33;;;21.30;67.40;;;;;;5009650;28;20201;-64
2022/03/31 04:06:26;;;;;;;16.20;13.00;;;21.30;72.70;;;;;;5009675;28;20272;-63
2022/03/31 04:08:52;;;;;;;14.90;11.57;;;21.40;71.80;;;;;;5009807;28;20181;-64
2022/03/31 04:11:17;;;;;;;20.43;17.80;;;;;;;;;;5009336;28;20256;-64
2022/03/31 04:13:46;;;;;;;17.20;14.10;;;;;;;;;;5009045;28;20201;-64
2022/03/31 04:16:11;;;;;;;14.90;12.80;;;21.30;67.10;;;;;;5009081;28;20892;-65
2022/03/31 04:18:38;;;;;;;13.70;12.00;;;;;;;;;;5008187;28;20506;-64
2022/03/31 04:21:04;;;;;;;13.40;11.30;;;21.30;55.00;;;;;;5008303;28;20181;-65
2022/03/31 04:23:30;;;;;;;16.60;12.73;;;;;;;;;;5008679;28;20440;-64
2022/03/31 04:25:55;;;;;;;17.40;13.57;;;21.20;60.30;;;;;;5007794;28;20431;-65
2022/03/31 04:28:21;;;;;;;17.97;13.77;;;21.30;66.60;;;;;;5005131;28;20491;-64
2022/03/31 04:30:47;;;;;;;10.53;9.47;;;;;;;;;;5018133;28;20661;-64
2022/03/31 04:33:13;;;;;;;14.80;12.53;;;;;;;;;;5025910;28;20180;-62
2022/03/31 04:35:39;;;;;;;15.13;12.87;;;21.10;69.60;;;;;;5007161;28;20437;-63
2022/03/31 04:38:04;;;;;;;15.93;12.93;;;20.90;66.80;;;;;;4997267;28;20457;-64
2022/03/31 04:40:30;;;;;;;18.30;15.00;;;21.20;67.00;;;;;;5015500;28;20197;-64
2022/03/31 04:42:56;;;;;;;14.60;11.40;;;21.10;67.40;;;;;;5023992;28;20267;-64
2022/03/31 04:45:21;;;;;;;17.47;14.80;;;21.10;67.10;;;;;;5028392;28;20419;-63
2022/03/31 04:47:47;;;;;;;11.90;9.30;;;21.30;67.20;;;;;;4989204;28;20271;-64
2022/03/31 04:50:14;;;;;;;11.97;10.47;;;21.00;66.70;;;;;;5005937;28;20302;-64
2022/03/31 04:52:40;;;;;;;11.23;10.07;;;20.20;47.00;;;;;;5008209;28;20181;-64
2022/03/31 04:55:07;;;;;;;17.47;13.60;;;;;;;;;;5011572;28;20644;-64
2022/03/31 04:57:32;;;;;;;12.37;11.07;;;;;;;;;;5009703;28;20900;-64
2022/03/31 04:59:58;;;;;;;14.23;12.73;;;21.40;66.90;;;;;;5023421;28;20414;-63
2022/03/31 05:02:24;;;;;;;19.17;16.00;;;21.20;70.90;;;;;;5028579;28;20403;-64
2022/03/31 05:04:50;;;;;;;13.20;11.23;;;21.10;69.30;;;;;;5028746;28;20263;-64
2022/03/31 05:07:15;;;;;;;15.90;14.23;;;21.20;64.50;;;;;;5028575;28;20192;-64
2022/03/31 05:09:41;;;;;;;18.40;15.20;;;21.10;68.90;;;;;;5028777;28;20183;-65
2022/03/31 05:12:08;;;;;;;18.67;15.50;;;21.20;68.30;;;;;;5028668;28;20279;-64
2022/03/31 05:14:34;;;;;;;15.93;13.43;;;;;;;;;;5028476;28;20956;-64
2022/03/31 05:17:00;;;;;;;19.50;13.97;;;21.20;66.90;;;;;;5028157;28;20431;-64
2022/03/31 05:19:25;;;;;;;15.20;12.17;;;21.20;67.30;;;;;;5028551;28;20973;-65
2022/03/31 05:21:51;;;;;;;19.73;16.90;;;21.10;67.30;;;;;;5028584;28;20888;-64
2022/03/31 05:24:16;;;;;;;12.33;10.63;;;21.20;66.90;;;;;;5030277;28;20184;-64
2022/03/31 05:26:42;;;;;;;12.90;10.83;;;21.10;67.00;;;;;;5031992;28;20283;-64
2022/03/31 05:29:08;;;;;;;12.10;10.50;;;21.20;67.10;;;;;;5032261;28;20248;-64
2022/03/31 05:31:34;;;;;;;16.87;13.30;;;21.20;67.20;;;;;;5025562;28;20412;-64
2022/03/31 05:34:00;;;;;;;17.63;14.90;;;21.30;71.40;;;;;;5012418;28;20728;-65
2022/03/31 05:36:25;;;;;;;18.00;14.33;;;21.00;70.70;;;;;;5010419;28;20178;-64
2022/03/31 05:38:51;;;;;;;26.20;21.10;;;21.30;71.60;;;;;;5012234;28;20230;-63
2022/03/31 05:41:16;;;;;;;27.00;24.10;;;21.20;69.60;;;;;;5012158;28;20204;-64
2022/03/31 05:43:42;;;;;;;45.93;41.47;;;;;;;;;;5012160;28;20177;-63
2022/03/31 05:46:08;;;;;;;41.33;37.43;;;;;;;;;;5011809;28;20182;-64
2022/03/31 05:48:34;;;;;;;48.83;44.03;;;21.30;70.70;;;;;;5012159;28;20849;-64
2022/03/31 05:51:00;;;;;;;51.20;45.87;;;21.00;67.10;;;;;;5012228;28;20416;-64
2022/03/31 05:53:26;;;;;;;29.93;25.23;;;21.20;68.10;;;;;;5012102;28;20255;-64
2022/03/31 05:55:52;;;;;;;54.13;48.73;;;21.30;67.30;;;;;;5011745;28;20408;-64
2022/03/31 05:58:17;;;;;;;33.83;30.27;;;21.10;67.00;;;;;;5012183;28;20309;-63
2022/03/31 06:00:43;;;;;;;33.47;30.13;;;;;;;;;;5011760;28;20434;-64
2022/03/31 06:03:09;;;;;;;45.17;40.77;;;21.30;71.10;;;;;;5012161;28;20178;-64
2022/03/31 06:05:35;;;;;;;28.50;25.73;;;;;;;;;;5011644;28;20803;-64
2022/03/31 06:08:01;;;;;;;127.20;115.87;;;;;;;;;;5011833;28;20197;-64
2022/03/31 06:10:26;;;;;;;77.13;69.73;;;21.40;67.30;;;;;;5011644;28;20414;-64
2022/03/31 06:12:53;;;;;;;12.10;10.53;;;20.60;67.40;;;;;;5011568;28;20515;-64
2022/03/31 06:15:19;;;;;;;13.10;10.83;;;21.00;67.60;;;;;;5011257;28;20201;-65
2022/03/31 06:17:46;;;;;;;71.27;64.33;;;21.30;67.30;;;;;;5011573;28;20432;-64
2022/03/31 06:20:13;;;;;;;52.70;47.73;;;21.10;48.80;;;;;;5011515;28;20172;-65
2022/03/31 06:22:39;;;;;;;48.73;43.93;;;21.10;47.90;;;;;;5011740;28;20760;-64
2022/03/31 06:25:06;;;;;;;21.33;15.23;;;21.00;67.00;;;;;;5011496;28;20793;-65
2022/03/31 06:27:33;;;;;;;8.90;7.90;;;21.20;48.70;;;;;;5011328;28;20523;-63
2022/03/31 06:29:59;;;;;;;6.50;5.70;;;21.00;67.30;;;;;;5011284;28;20405;-64
2022/03/31 06:32:25;;;;;;;10.80;9.07;;;21.30;67.20;;;;;;5011340;28;20486;-63
2022/03/31 06:34:51;;;;;;;22.43;17.40;;;;;;;;;;5010768;28;20685;-64
2022/03/31 06:37:18;;;;;;;34.03;30.77;;;21.10;64.40;;;;;;5008991;28;20499;-64
2022/03/31 06:39:44;;;;;;;67.03;60.90;;;;;;;;;;5011671;28;20710;-64
2022/03/31 06:42:10;;;;;;;32.23;28.93;;;;;;;;;;5009631;28;20893;-64
2022/03/31 06:44:36;;;;;;;23.47;19.57;;;;;;;;;;4991656;28;20481;-64
2022/03/31 06:47:02;;;;;;;15.97;14.30;;;21.10;70.40;;;;;;4991689;28;20511;-64
2022/03/31 06:49:28;;;;;;;6.40;5.70;;;20.70;67.30;;;;;;4991852;28;20527;-63
2022/03/31 06:51:53;;;;;;;7.60;6.90;;;21.20;67.30;;;;;;4991819;28;20178;-64
2022/03/31 06:54:19;;;;;;;11.50;9.60;;;;;;;;;;4991744;28;20260;-64
2022/03/31 06:56:49;;;;;;;7.30;6.40;;;21.20;50.70;;;;;;4991354;28;20277;-64
2022/03/31 06:59:15;;;;;;;6.93;5.90;;;21.00;61.30;;;;;;4991595;28;20414;-63
2022/03/31 07:01:40;;;;;;;11.93;9.33;;;21.10;67.40;;;;;;4991510;28;20420;-64
2022/03/31 07:04:07;;;;;;;4.87;4.37;;;21.10;67.50;;;;;;4991505;28;20605;-64
2022/03/31 07:06:35;;;;;;;2.23;2.13;;;21.00;72.70;;;;;;4991061;28;20197;-65
2022/03/31 07:09:01;;;;;;;2.50;2.23;;;21.20;69.40;;;;;;4991374;28;20406;-64
2022/03/31 07:11:27;;;;;;;3.40;3.23;;;20.90;67.50;;;;;;4991183;28;20958;-64
2022/03/31 07:13:52;;;;;;;3.10;3.00;;;21.10;67.40;;;;;;4991194;28;20257;-64
2022/03/31 07:16:18;;;;;;;4.50;4.10;;;21.00;67.30;;;;;;4990942;28;20170;-64
2022/03/31 07:18:44;;;;;;;7.57;6.80;;;;;;;;;;4991462;28;20186;-63
2022/03/31 07:21:11;;;;;;;8.43;7.57;;;21.20;67.50;;;;;;4991065;28;20409;-64
2022/03/31 07:23:36;;;;;;;3.40;3.20;;;21.20;67.30;;;;;;4991321;28;20475;-63
2022/03/31 07:26:03;;;;;;;7.63;6.87;;;21.10;71.80;;;;;;4990714;28;20421;-64
2022/03/31 07:28:28;;;;;;;1.70;1.60;;;21.00;68.20;;;;;;4991033;28;20636;-63
2022/03/31 07:30:54;;;;;;;9.50;8.50;;;;;;;;;;5003906;28;20507;-64
2022/03/31 07:33:21;;;;;;;10.10;8.47;;;21.20;67.40;;;;;;5007045;28;20228;-63
2022/03/31 07:35:48;;;;;;;5.10;4.77;;;;;;;;;;5010137;28;20511;-64
2022/03/31 07:38:14;;;;;;;6.10;5.70;;;;;;;;;;5009879;28;20447;-65
2022/03/31 07:40:41;;;;;;;6.97;6.37;;;21.30;67.70;;;;;;5009813;28;20445;-66
2022/03/31 07:43:08;;;;;;;3.50;3.20;;;21.10;48.90;;;;;;5009976;28;20420;-64
2022/03/31 07:45:34;;;;;;;3.97;3.77;;;21.10;48.80;;;;;;5010033;28;20444;-64
2022/03/31 07:48:01;;;;;;;6.13;5.53;;;21.20;70.40;;;;;;4992246;28;20441;-64
2022/03/31 07:50:27;;;;;;;13.53;10.30;;;21.20;72.50;;;;;;5010365;28;20412;-64
2022/03/31 07:52:53;;;;;;;6.83;6.10;;;19.60;66.60;;;;;;5010375;28;20758;-64
2022/03/31 07:55:19;;;;;;;6.67;6.17;;;21.20;67.60;;;;;;5010216;28;20251;-64
2022/03/31 07:57:45;;;;;;;2.80;2.70;;;21.10;48.30;;;;;;5009867;28;20204;-63
2022/03/31 08:00:12;;;;;;;9.17;8.20;;;21.00;57.60;;;;;;5010254;28;20447;-64
2022/03/31 08:02:40;;;;;;;8.70;7.90;;;21.20;71.60;;;;;;5010215;28;20405;-64
2022/03/31 08:05:06;;;;;;;8.60;7.70;;;;;;;;;;5010219;28;20419;-64
2022/03/31 08:07:32;;;;;;;2.43;2.30;;;21.00;67.60;;;;;;5009776;28;20436;-64
2022/03/31 08:09:58;;;;;;;6.70;6.10;;;20.90;67.70;;;;;;5009837;28;20419;-64
2022/03/31 08:12:23;;;;;;;6.77;6.13;;;21.00;69.30;;;;;;5009767;28;20881;-63
2022/03/31 08:14:49;;;;;;;3.00;2.87;;;;;;;;;;5009780;28;20657;-64
2022/03/31 08:17:17;;;;;;;12.53;9.17;;;21.00;68.60;;;;;;5009595;28;20275;-64
2022/03/31 08:19:43;;;;;;;9.40;7.73;;;21.10;72.40;;;;;;5009687;28;20412;-64
2022/03/31 08:22:09;;;;;;;8.10;7.30;;;21.10;67.20;;;;;;5009541;28;20413;-64
2022/03/31 08:24:35;;;;;;;7.23;6.63;;;21.00;72.50;;;;;;5009972;28;20900;-64
2022/03/31 08:27:00;;;;;;;9.33;8.40;;;21.00;67.80;;;;;;5009383;28;20497;-64
2022/03/31 08:29:26;;;;;;;10.07;8.30;;;21.00;67.20;;;;;;5009806;28;20184;-64
2022/03/31 08:31:53;;;;;;;14.50;12.53;;;21.00;49.20;;;;;;5009437;28;20251;-63
2022/03/31 08:34:18;;;;;;;7.90;7.20;;;21.10;67.40;;;;;;5009503;28;20551;-64
2022/03/31 08:36:44;;;;;;;11.97;10.20;;;21.10;70.80;;;;;;5009204;28;20511;-64
2022/03/31 08:39:10;;;;;;;19.40;16.80;;;21.00;68.50;;;;;;5009377;28;20201;-64
2022/03/31 08:41:36;;;;;;;16.40;13.70;;;21.00;67.40;;;;;;5009398;28;20177;-64
2022/03/31 08:44:02;;;;;;;16.10;13.93;;;21.00;67.80;;;;;;5009313;28;20181;-65
2022/03/31 08:46:31;;;;;;;15.07;12.03;;;21.00;67.60;;;;;;5009326;28;20478;-64
2022/03/31 08:48:57;;;;;;;15.00;13.43;;;21.00;71.10;;;;;;5009457;28;20435;-64
2022/03/31 08:51:23;;;;;;;10.40;9.40;;;21.10;69.10;;;;;;5009431;28;20915;-65
2022/03/31 08:53:49;;;;;;;18.17;16.23;;;;;;;;;;5009776;28;20826;-64
2022/03/31 08:56:16;;;;;;;14.90;10.90;;;21.00;67.10;;;;;;5009362;28;20404;-64
2022/03/31 08:58:45;;;;;;;12.40;10.60;;;21.00;71.00;;;;;;5010267;28;20418;-65
2022/03/31 09:01:15;;;;;;;13.27;10.87;;;21.00;55.00;;;;;;5013329;28;20412;-64
2022/03/31 09:03:41;;;;;;;26.93;24.17;;;;;;;;;;5013177;28;20424;-64
2022/03/31 09:06:10;;;;;;;22.67;17.43;;;;;;;;;;5012518;28;20415;-63
2022/03/31 09:08:36;;;;;;;21.00;14.83;;;21.10;68.00;;;;;;5012850;28;20408;-64
2022/03/31 09:11:03;;;;;;;14.83;12.63;;;;;;;;;;5012901;28;20412;-64
2022/03/31 09:13:37;;;;;;;18.80;16.13;;;21.10;47.00;;;;;;5012884;28;20285;-64
2022/03/31 09:16:06;;;;;;;11.60;10.33;;;21.10;49.30;;;;;;5012434;28;20547;-63
2022/03/31 09:18:34;;;;;;;17.50;14.93;;;21.00;71.40;;;;;;5012283;28;20806;-65
2022/03/31 09:21:03;;;;;;;21.23;18.43;;;21.20;71.50;;;;;;5012538;28;20454;-63
2022/03/31 09:23:32;;;;;;;28.97;25.83;;;21.00;48.80;;;;;;5012599;28;20415;-64
2022/03/31 09:26:06;;;;;;;16.63;14.83;;;21.00;49.50;;;;;;5012411;28;20629;-64
2022/03/31 09:28:32;;;;;;;33.00;29.47;;;;;;;;;;5012495;28;20811;-64
2022/03/31 09:30:57;;;;;;;12.20;9.47;;;21.00;70.30;;;;;;5010788;28;20470;-64
2022/03/31 09:33:37;;;;;;;9.33;8.37;;;21.00;68.80;;;;;;4993043;28;20401;-64
2022/03/31 09:36:03;;;;;;;69.50;63.03;;;;;;;;;;4992748;28;20174;-64
2022/03/31 09:38:29;;;;;;;9.17;8.27;;;20.90;67.50;;;;;;4992867;28;20436;-64
2022/03/31 09:40:57;;;;;;;35.30;31.90;;;;;;;;;;4992881;28;20504;-63
2022/03/31 09:43:22;;;;;;;18.13;15.23;;;21.10;66.60;;;;;;4992564;28;20409;-64
2022/03/31 09:45:48;;;;;;;21.23;18.03;;;21.30;56.00;;;;;;4992489;28;20410;-63
2022/03/31 09:48:22;;;;;;;15.50;13.97;;;21.10;47.00;;;;;;4992642;28;20682;-64
2022/03/31 09:50:49;;;;;;;18.97;16.03;;;21.30;64.00;;;;;;4992892;28;20174;-64
2022/03/31 09:53:15;;;;;;;13.40;11.40;;;21.20;69.10;;;;;;4992771;28;20730;-64
2022/03/31 09:55:43;;;;;;;15.17;12.50;;;21.10;69.10;;;;;;4992629;28;20791;-64
2022/03/31 09:58:20;;;;;;;7.17;6.47;;;21.10;71.30;;;;;;4992545;28;20429;-64
2022/03/31 10:00:46;;;;;;;7.60;6.90;;;;;;;;;;4992813;28;20405;-65
2022/03/31 10:03:17;;;;;;;8.70;7.80;;;21.10;53.00;;;;;;4992647;28;20410;-65
2022/03/31 10:05:45;;;;;;;10.23;8.90;;;21.10;53.50;;;;;;4992407;28;20414;-63
2022/03/31 10:08:12;;;;;;;5.57;5.17;;;21.00;67.80;;;;;;4992349;28;20530;-63
2022/03/31 10:10:38;;;;;;;4.80;4.23;;;21.10;48.90;;;;;;4991968;28;20964;-64
2022/03/31 10:13:25;;;;;;;9.43;8.43;;;21.00;49.30;;;;;;4992541;28;20413;-64
2022/03/31 10:16:08;;;;;;;7.63;6.93;;;21.00;62.50;;;;;;4992192;28;20421;-64
2022/03/31 10:18:35;;;;;;;5.83;5.43;;;21.10;68.30;;;;;;4992424;28;20410;-65
2022/03/31 10:21:01;;;;;;;10.97;9.57;;;20.90;67.20;;;;;;4992198;28;20404;-64
2022/03/31 10:26:22;;;;;;;6.37;5.83;;;21.20;67.90;;;;;;4992239;28;20260;-64
2022/03/31 10:28:55;;;;;;;6.00;5.50;;;21.10;67.70;;;;;;4992149;28;20488;-64
2022/03/31 10:31:21;;;;;;;3.80;3.60;;;21.20;63.00;;;;;;4996640;28;20491;-64
2022/03/31 10:33:52;;;;;;;7.43;6.77;;;21.10;49.30;;;;;;5011547;28;20791;-64
2022/03/31 10:36:20;;;;;;;11.60;9.23;;;;;;;;;;5011033;28;20506;-64
2022/03/31 10:38:55;;;;;;;8.30;7.43;;;21.20;67.60;;;;;;5011215;28;20804;-64
2022/03/31 10:41:29;;;;;;;7.20;6.50;;;21.10;69.40;;;;;;5011313;28;20415;-64
2022/03/31 10:43:58;;;;;;;9.93;8.93;;;;;;;;;;4993416;28;20428;-64
2022/03/31 10:46:25;;;;;;;8.43;6.00;;;21.10;68.20;;;;;;5010973;28;20416;-65
2022/03/31 10:48:57;;;;;;;5.87;5.37;;;21.10;67.40;;;;;;5011008;28;20434;-64
2022/03/31 10:51:37;;;;;;;7.20;6.60;;;21.10;67.50;;;;;;5011127;28;20453;-64
2022/03/31 10:54:05;;;;;;;5.57;5.13;;;20.90;67.30;;;;;;5010987;28;20452;-64
2022/03/31 10:56:32;;;;;;;7.60;6.90;;;21.10;48.90;;;;;;5010680;28;20452;-64
2022/03/31 10:59:00;;;;;;;8.70;7.90;;;21.00;68.60;;;;;;5011081;28;20401;-64
2022/03/31 11:01:31;;;;;;;9.73;8.77;;;21.00;67.50;;;;;;5010887;28;20439;-64
2022/03/31 11:04:11;;;;;;;9.53;8.63;;;21.00;52.40;;;;;;5011012;28;20555;-64
2022/03/31 11:06:51;;;;;;;7.50;6.73;;;21.10;68.00;;;;;;5010507;28;20420;-64
2022/03/31 11:09:27;;;;;;;6.97;6.27;;;21.10;47.00;;;;;;5010592;28;20927;-64
2022/03/31 11:11:55;;;;;;;8.83;8.00;;;20.90;69.20;;;;;;5010911;28;20494;-65
2022/03/31 11:14:22;;;;;;;7.27;6.57;;;21.10;71.60;;;;;;5010547;28;20836;-64
2022/03/31 11:16:47;;;;;;;7.70;6.90;;;21.00;60.70;;;;;;5010483;28;20947;-64
2022/03/31 11:19:13;;;;;;;4.97;4.57;;;;;;;;;;5010664;28;20404;-64
2022/03/31 11:21:42;;;;;;;2.70;2.57;;;21.20;67.60;;;;;;5009826;28;20336;-65
2022/03/31 11:24:09;;;;;;;2.90;2.80;;;20.90;68.40;;;;;;5010633;28;20440;-64
2022/03/31 11:26:40;;;;;;;5.70;5.23;;;20.90;67.30;;;;;;5010445;28;20455;-64
2022/03/31 11:29:11;;;;;;;4.80;4.50;;;21.10;64.40;;;;;;5010478;28;20408;-63
2022/03/31 11:31:41;;;;;;;5.97;5.53;;;21.10;67.50;;;;;;5003829;28;20421;-67
2022/03/31 11:34:22;;;;;;;8.20;7.50;;;21.20;47.60;;;;;;4990821;28;20496;-65
2022/03/31 11:36:48;;;;;;;7.47;6.87;;;21.10;68.20;;;;;;4990630;28;20439;-65
2022/03/31 11:39:17;;;;;;;5.80;5.40;;;21.10;67.60;;;;;;4990610;28;20774;-64
2022/03/31 11:41:43;;;;;;;7.70;7.10;;;21.00;57.60;;;;;;4990642;28;20419;-64
2022/03/31 11:44:09;;;;;;;8.83;8.10;;;;;;;;;;4990757;28;20409;-64
2022/03/31 11:46:52;;;;;;;6.50;5.90;;;21.30;67.50;;;;;;4990297;28;20228;-64
2022/03/31 11:49:26;;;;;;;8.50;7.60;;;21.00;68.20;;;;;;4990551;28;20507;-65
2022/03/31 11:52:00;;;;;;;7.37;6.67;;;21.10;50.00;;;;;;4990692;28;20413;-64
2022/03/31 11:54:28;;;;;;;6.13;5.53;;;20.80;67.30;;;;;;4990390;28;20545;-64
2022/03/31 11:57:05;;;;;;;9.37;8.27;;;21.10;69.10;;;;;;4990394;28;20443;-65
2022/03/31 11:59:31;;;;;;;3.80;3.53;;;;;;;;;;4990511;28;20415;-64
2022/03/31 12:01:57;;;;;;;2.67;2.57;;;;;;;;;;4990674;28;20405;-64
2022/03/31 12:04:25;;;;;;;6.70;6.20;;;23.10;69.10;;;;;;4990514;28;20413;-64
2022/03/31 12:06:52;;;;;;;4.53;4.20;;;21.20;49.00;;;;;;4990007;28;20432;-64
2022/03/31 12:09:19;;;;;;;2.57;2.47;;;20.90;68.30;;;;;;4990197;28;20805;-64
2022/03/31 12:11:48;;;;;;;4.53;4.23;;;21.00;51.40;;;;;;4990259;28;20443;-64
2022/03/31 12:14:15;;;;;;;2.67;2.57;;;;;;;;;;4990274;28;21052;-65
2022/03/31 12:16:54;;;;;;;3.93;3.67;;;21.00;57.80;;;;;;4990029;28;20425;-64
2022/03/31 12:19:21;;;;;;;8.50;7.70;;;;;;;;;;4990179;28;20850;-64
2022/03/31 12:21:49;;;;;;;6.47;6.00;;;20.90;67.80;;;;;;4990117;28;20413;-67
2022/03/31 12:24:15;;;;;;;6.83;6.27;;;21.00;67.60;;;;;;4990312;28;20417;-64
2022/03/31 12:26:57;;;;;;;4.67;4.27;;;21.50;47.30;;;;;;4989999;28;20510;-64
2022/03/31 12:29:25;;;;;;;8.33;7.20;;;21.00;67.60;;;;;;4990178;28;21173;-65
2022/03/31 12:32:13;;;;;;;7.93;7.27;;;20.70;54.80;;;;;;4999188;28;20773;-64
2022/03/31 12:34:53;;;;;;;3.77;3.57;;;20.90;56.40;;;;;;5013620;28;20452;-63
2022/03/31 12:37:35;;;;;;;6.77;6.27;;;20.90;68.00;;;;;;5012103;28;20446;-65
2022/03/31 12:40:10;;;;;;;10.27;9.27;;;21.00;67.60;;;;;;5011976;28;20451;-65
2022/03/31 12:42:36;;;;;;;14.73;12.43;;;;;;;;;;5005342;28;20412;-65
2022/03/31 12:45:22;;;;;;;9.10;8.20;;;21.00;71.00;;;;;;5013246;28;20416;-64
2022/03/31 12:47:48;;;;;;;12.77;11.00;;;;;;;;;;5013037;28;20447;-65
2022/03/31 12:50:23;;;;;;;18.40;16.43;;;21.00;57.90;;;;;;5013066;28;20519;-64
2022/03/31 12:53:07;;;;;;;14.40;12.60;;;21.00;69.10;;;;;;5013223;28;20414;-65
2022/03/31 12:55:35;;;;;;;46.50;42.07;;;21.10;67.40;;;;;;5012849;28;20455;-64
2022/03/31 12:58:02;;;;;;;21.20;19.00;;;21.20;67.70;;;;;;5013205;28;20435;-64
2022/03/31 13:00:29;;;;;;;8.70;7.90;;;21.00;48.50;;;;;;5012952;28;20693;-64
2022/03/31 13:02:59;;;;;;;51.00;45.57;;;;;;;;;;5013129;28;20415;-64
2022/03/31 13:05:26;;;;;;;7.87;7.17;;;21.00;68.50;;;;;;5012983;28;20415;-65